createdAt,value
2023-03-04T00:03:54.368Z,90.45
2023-03-04T00:08:56.221Z,90.67
2023-03-04T00:13:59.330Z,90.38
2023-03-04T00:19:01.037Z,90.28
2023-03-04T00:24:02.818Z,90.40
2023-03-04T00:29:05.840Z,90.69
2023-03-04T00:34:07.520Z,90.43
2023-03-04T00:39:09.243Z,90.63
2023-03-04T00:44:12.294Z,90.29
2023-03-04T00:49:13.986Z,90.27
2023-03-04T00:54:15.656Z,90.40
2023-03-04T00:59:18.794Z,90.10
2023-03-04T01:04:20.541Z,90.11
2023-03-04T01:09:22.218Z,90.08
2023-03-04T01:14:25.299Z,90.54
2023-03-04T01:19:27.062Z,90.84
2023-03-04T01:24:30.015Z,90.71
2023-03-04T01:29:33.541Z,91.07
2023-03-04T01:34:36.165Z,90.99
2023-03-04T01:39:39.407Z,90.68
2023-03-04T01:44:42.485Z,90.92
2023-03-04T01:49:44.306Z,90.84
2023-03-04T01:54:45.971Z,90.60
2023-03-04T02:00:17.366Z,91.32
2023-03-04T02:05:20.614Z,91.18
2023-03-04T02:10:22.370Z,91.83
2023-03-04T02:15:26.200Z,92.07
2023-03-04T02:20:34.351Z,92.37
2023-03-04T02:25:38.503Z,92.51
2023-03-04T02:30:41.880Z,93.53
2023-03-04T02:35:43.772Z,93.02
2023-03-04T02:40:47.080Z,93.47
2023-03-04T02:45:51.417Z,93.77
2023-03-04T02:50:53.709Z,94.11
2023-03-04T02:55:55.518Z,94.05
2023-03-04T03:01:00.614Z,94.47
2023-03-04T03:06:03.917Z,94.00
2023-03-04T03:11:06.038Z,94.24
2023-03-04T03:16:10.595Z,94.05
2023-03-04T03:21:12.408Z,94.30
2023-03-04T03:26:14.373Z,94.36
2023-03-04T03:31:17.537Z,94.46
2023-03-04T03:36:21.756Z,94.24
2023-03-04T03:41:23.504Z,94.35
2023-03-04T03:46:27.297Z,94.96
2023-03-04T03:51:28.948Z,96.35
2023-03-04T03:56:30.610Z,97.14
2023-03-04T04:01:33.834Z,97.08
2023-03-04T04:06:35.547Z,97.24
2023-03-04T04:11:37.222Z,97.66
2023-03-04T04:16:40.489Z,98.23
2023-03-04T04:21:42.183Z,98.89
2023-03-04T04:26:43.895Z,99.04
2023-03-04T04:31:46.914Z,99.28
2023-03-04T04:36:48.612Z,99.18
2023-03-04T04:41:50.279Z,99.43
2023-03-04T04:46:53.294Z,99.54
2023-03-04T04:51:54.974Z,99.77
2023-03-04T04:56:56.639Z,99.71
2023-03-04T05:01:59.709Z,100.00
2023-03-04T05:07:01.425Z,100.00
2023-03-04T05:12:03.405Z,100.00
2023-03-04T05:17:06.453Z,100.00
2023-03-04T05:22:09.252Z,100.00
2023-03-04T05:27:11.305Z,100.00
2023-03-04T05:32:14.315Z,100.00
2023-03-04T05:37:16.037Z,100.00
2023-03-04T05:42:17.705Z,100.00
2023-03-04T05:47:20.736Z,100.00
2023-03-04T05:52:22.455Z,100.00
2023-03-04T05:57:24.132Z,100.00
2023-03-04T06:02:27.449Z,100.00
2023-03-04T06:07:29.149Z,100.00
2023-03-04T06:12:30.881Z,100.00
2023-03-04T06:17:33.873Z,100.00
2023-03-04T06:22:35.657Z,100.00
2023-03-04T06:27:37.374Z,100.00
2023-03-04T06:32:40.419Z,100.00
2023-03-04T06:37:42.297Z,100.00
2023-03-04T06:42:44.017Z,100.00
2023-03-04T06:47:47.048Z,100.00
2023-03-04T06:52:49.333Z,100.00
2023-03-04T06:57:51.100Z,100.00
2023-03-04T07:02:55.226Z,100.00
2023-03-04T07:07:56.980Z,100.00
2023-03-04T07:12:58.702Z,100.00
2023-03-04T07:18:01.771Z,100.00
2023-03-04T07:23:03.441Z,100.00
2023-03-04T07:28:05.095Z,100.00
2023-03-04T07:33:08.105Z,100.00
2023-03-04T07:38:09.735Z,100.00
2023-03-04T07:43:11.418Z,100.00
2023-03-04T07:48:14.378Z,100.00
2023-03-04T07:53:16.057Z,100.00
2023-03-04T07:58:19.798Z,100.00
2023-03-04T08:03:22.780Z,100.00
2023-03-04T08:08:24.425Z,100.00
2023-03-04T08:13:26.074Z,100.00
2023-03-04T08:18:29.058Z,100.00
2023-03-04T08:23:30.791Z,100.00
2023-03-04T08:28:32.486Z,100.00
2023-03-04T08:33:35.545Z,100.00
2023-03-04T08:38:37.749Z,100.00
2023-03-04T08:43:39.569Z,100.00
2023-03-04T08:48:42.534Z,100.00
2023-03-04T08:53:44.265Z,100.00
2023-03-04T08:58:45.950Z,100.00
2023-03-04T09:03:49.005Z,96.24
2023-03-04T09:08:50.907Z,95.49
2023-03-04T09:13:53.328Z,91.24
2023-03-04T09:18:56.343Z,93.19
2023-03-04T09:23:57.969Z,94.65
2023-03-04T09:29:00.499Z,94.68
2023-03-04T09:34:03.494Z,94.71
2023-03-04T09:39:05.618Z,95.40
2023-03-04T09:44:12.824Z,91.80
2023-03-04T09:49:16.038Z,92.19
2023-03-04T09:54:23.164Z,92.00
2023-03-04T09:59:25.750Z,91.46
2023-03-04T10:04:32.440Z,92.23
2023-03-04T10:09:42.406Z,92.07
2023-03-04T10:14:45.157Z,94.71
2023-03-04T10:19:53.202Z,94.11
2023-03-04T10:24:56.359Z,92.61
2023-03-04T10:29:58.419Z,91.90
2023-03-04T10:35:01.444Z,90.59
2023-03-04T10:40:03.929Z,88.94
2023-03-04T10:45:11.941Z,86.19
2023-03-04T10:50:21.602Z,79.93
2023-03-04T10:55:24.596Z,80.28
2023-03-04T11:00:28.507Z,67.93
2023-03-04T11:05:32.081Z,59.16
2023-03-04T11:10:39.425Z,55.04
2023-03-04T11:15:49.872Z,63.31
2023-03-04T11:20:52.856Z,66.68
2023-03-04T11:25:56.453Z,71.59
2023-03-04T11:30:59.431Z,73.50
2023-03-04T11:36:09.908Z,72.47
2023-03-04T11:41:13.060Z,70.12
2023-03-04T11:46:45.113Z,68.73
2023-03-04T11:51:49.708Z,68.48
2023-03-04T11:56:51.805Z,68.99
2023-03-04T12:01:59.566Z,65.16
2023-03-04T12:07:09.649Z,69.33
2023-03-04T12:12:23.602Z,69.77
2023-03-04T12:17:35.721Z,70.67
2023-03-04T12:22:43.475Z,71.00
2023-03-04T12:27:49.072Z,68.98
2023-03-04T12:32:53.753Z,68.94
2023-03-04T12:38:06.705Z,70.65
2023-03-04T12:43:16.291Z,70.95
2023-03-04T12:48:25.848Z,68.62
2023-03-04T12:53:30.827Z,66.91
2023-03-04T12:58:33.549Z,68.50
2023-03-04T13:03:40.466Z,65.96
2023-03-04T13:08:51.237Z,59.94
2023-03-04T13:14:01.505Z,61.66
2023-03-04T13:19:03.210Z,62.53
2023-03-04T13:24:38.133Z,64.40
2023-03-04T13:29:41.129Z,66.44
2023-03-04T13:34:50.133Z,66.61
2023-03-04T13:40:14.404Z,68.62
2023-03-04T13:45:34.431Z,69.70
2023-03-04T13:50:41.380Z,72.17
2023-03-04T13:55:44.024Z,73.33
2023-03-04T14:00:51.456Z,76.55
2023-03-04T14:06:14.111Z,76.89
2023-03-04T14:11:17.209Z,76.11
2023-03-04T14:16:21.684Z,74.02
2023-03-04T14:21:23.465Z,74.13
2023-03-04T14:26:25.240Z,74.08
2023-03-04T14:31:30.131Z,75.27
2023-03-04T14:36:32.909Z,67.89
2023-03-04T14:41:35.062Z,67.80
2023-03-04T14:46:40.261Z,66.49
2023-03-04T14:51:45.587Z,67.14
2023-03-04T14:56:47.300Z,69.69
2023-03-04T15:01:50.399Z,69.79
2023-03-04T15:06:52.919Z,71.55
2023-03-04T15:11:57.405Z,73.00
2023-03-04T15:17:00.443Z,72.84
2023-03-04T15:22:05.387Z,74.57
2023-03-04T15:27:08.722Z,71.61
2023-03-04T15:32:12.026Z,69.26
2023-03-04T15:37:14.132Z,68.00
2023-03-04T15:42:15.923Z,66.57
2023-03-04T15:47:19.052Z,66.04
2023-03-04T15:52:21.243Z,66.09
2023-03-04T15:57:23.772Z,66.27
2023-03-04T16:02:30.479Z,67.98
2023-03-04T16:07:32.142Z,68.21
2023-03-04T16:12:33.823Z,68.75
2023-03-04T16:17:43.391Z,75.78
2023-03-04T16:22:45.732Z,76.28
2023-03-04T16:27:47.376Z,75.97
2023-03-04T16:32:50.423Z,76.46
2023-03-04T16:37:52.196Z,76.00
2023-03-04T16:42:53.842Z,74.58
2023-03-04T16:47:56.876Z,75.00
2023-03-04T16:52:58.553Z,74.98
2023-03-04T16:58:00.255Z,74.44
2023-03-04T17:03:04.227Z,72.20
2023-03-04T17:08:06.017Z,71.01
2023-03-04T17:13:08.665Z,71.71
2023-03-04T17:18:11.658Z,70.68
2023-03-04T17:23:13.343Z,68.92
2023-03-04T17:28:15.056Z,68.22
2023-03-04T17:33:18.063Z,68.21
2023-03-04T17:38:19.727Z,64.78
2023-03-04T17:43:21.401Z,62.91
2023-03-04T17:48:24.411Z,61.09
2023-03-04T17:53:26.198Z,61.11
2023-03-04T17:58:28.210Z,61.42
2023-03-04T18:03:31.285Z,61.96
2023-03-04T18:08:32.986Z,62.18
2023-03-04T18:13:34.815Z,63.59
2023-03-04T18:18:37.894Z,63.00
2023-03-04T18:23:39.569Z,63.27
2023-03-04T18:28:41.369Z,63.39
2023-03-04T18:33:44.816Z,64.26
2023-03-04T18:38:46.475Z,64.54
2023-03-04T18:43:48.219Z,62.82
2023-03-04T18:48:52.869Z,63.24
2023-03-04T18:53:54.497Z,62.79
2023-03-04T18:58:56.163Z,62.92
2023-03-04T19:03:59.321Z,63.15
2023-03-04T19:09:01.112Z,64.21
2023-03-04T19:14:02.804Z,63.91
2023-03-04T19:19:05.797Z,63.91
2023-03-04T19:24:07.644Z,64.60
2023-03-04T19:29:09.293Z,64.13
2023-03-04T19:34:12.311Z,63.96
2023-03-04T19:39:15.565Z,64.38
2023-03-04T19:44:17.292Z,64.12
2023-03-04T19:49:20.317Z,63.91
2023-03-04T19:54:21.971Z,64.72
2023-03-04T19:59:23.630Z,65.03
2023-03-04T20:04:26.855Z,65.50
2023-03-04T20:09:28.581Z,63.05
2023-03-04T20:14:30.629Z,63.80
2023-03-04T20:19:34.040Z,63.42
2023-03-04T20:24:35.738Z,63.55
2023-03-04T20:29:37.402Z,63.41
2023-03-04T20:34:40.372Z,63.70
2023-03-04T20:39:42.068Z,63.99
2023-03-04T20:44:43.746Z,64.46
2023-03-04T20:49:46.751Z,64.36
2023-03-04T20:54:48.427Z,62.55
2023-03-04T20:59:50.071Z,63.14
2023-03-04T21:04:55.436Z,63.19
2023-03-04T21:09:57.157Z,64.62
2023-03-04T21:14:58.853Z,64.93
2023-03-04T21:20:01.823Z,65.61
2023-03-04T21:25:04.507Z,66.59
2023-03-04T21:30:07.805Z,67.29
2023-03-04T21:35:11.374Z,67.92
2023-03-04T21:40:13.481Z,67.58
2023-03-04T21:45:15.188Z,68.14
2023-03-04T21:50:18.497Z,67.15
2023-03-04T21:55:20.273Z,67.78
2023-03-04T22:00:22.091Z,67.19
2023-03-04T22:05:25.157Z,67.43
2023-03-04T22:10:26.872Z,67.21
2023-03-04T22:15:28.807Z,68.44
2023-03-04T22:20:33.113Z,69.96
2023-03-04T22:25:35.005Z,71.03
2023-03-04T22:30:37.325Z,73.44
2023-03-04T22:35:40.604Z,74.30
2023-03-04T22:40:42.654Z,74.80
2023-03-04T22:45:44.415Z,77.43
2023-03-04T22:50:47.428Z,79.73
2023-03-04T22:55:49.197Z,81.95
2023-03-04T23:00:50.992Z,83.73
2023-03-04T23:06:02.985Z,86.14
2023-03-04T23:11:08.566Z,88.16
2023-03-04T23:16:11.154Z,90.36
2023-03-04T23:21:15.086Z,91.73
2023-03-04T23:26:18.701Z,92.43
2023-03-04T23:31:20.430Z,92.80
2023-03-04T23:36:24.242Z,93.05
2023-03-04T23:41:30.169Z,94.80
2023-03-04T23:46:32.002Z,95.66
2023-03-04T23:51:35.068Z,96.91
2023-03-04T23:56:37.121Z,97.21
